sensor_id;sensor_type;location;lat;lon;timestamp;pressure;altitude;pressure_sealevel;temperature;humidity
19086;BME280;9675;51.538;6.728;2023-01-25T00:00:37;103375.25;;;4.32;100.00
19086;BME280;9675;51.538;6.728;2023-01-25T00:03:04;103369.81;;;4.28;100.00
19086;BME280;9675;51.538;6.728;2023-01-25T00:05:31;103367.06;;;4.27;100.00
19086;BME280;9675;51.538;6.728;2023-01-25T00:07:58;103366.16;;;4.26;100.00
19086;BME280;9675;51.538;6.728;2023-01-25T00:10:25;103359.41;;;4.27;100.00
19086;BME280;9675;51.538;6.728;2023-01-25T00:12:54;103364.72;;;4.28;100.00
19086;BME280;9675;51.538;6.728;2023-01-25T00:15:22;103360.88;;;4.25;100.00
19086;BME280;9675;51.538;6.728;2023-01-25T00:17:49;103365.97;;;4.25;100.00
19086;BME280;9675;51.538;6.728;2023-01-25T00:20:16;103360.72;;;4.23;100.00
19086;BME280;9675;51.538;6.728;2023-01-25T00:22:43;103356.75;;;4.18;100.00
19086;BME280;9675;51.538;6.728;2023-01-25T00:25:10;103360.91;;;4.18;100.00
19086;BME280;9675;51.538;6.728;2023-01-25T00:27:37;103357.13;;;4.14;100.00
19086;BME280;9675;51.538;6.728;2023-01-25T00:30:08;103356.22;;;4.14;100.00
19086;BME280;9675;51.538;6.728;2023-01-25T00:32:51;103348.72;;;4.15;100.00
19086;BME280;9675;51.538;6.728;2023-01-25T00:35:21;103347.06;;;4.16;100.00
19086;BME280;9675;51.538;6.728;2023-01-25T00:37:51;103341.81;;;4.14;100.00
19086;BME280;9675;51.538;6.728;2023-01-25T00:40:18;103340.16;;;4.15;100.00
19086;BME280;9675;51.538;6.728;2023-01-25T00:42:45;103337.59;;;4.15;100.00
19086;BME280;9675;51.538;6.728;2023-01-25T00:45:14;103331.44;;;4.13;100.00
19086;BME280;9675;51.538;6.728;2023-01-25T00:47:41;103329.44;;;4.10;100.00
19086;BME280;9675;51.538;6.728;2023-01-25T00:50:09;103330.00;;;4.08;100.00
19086;BME280;9675;51.538;6.728;2023-01-25T00:52:36;103324.91;;;4.08;100.00
19086;BME280;9675;51.538;6.728;2023-01-25T00:55:04;103319.44;;;4.05;100.00
19086;BME280;9675;51.538;6.728;2023-01-25T00:57:32;103324.72;;;4.06;100.00
19086;BME280;9675;51.538;6.728;2023-01-25T00:59:59;103328.00;;;4.05;100.00
19086;BME280;9675;51.538;6.728;2023-01-25T01:02:29;103339.09;;;4.06;100.00
19086;BME280;9675;51.538;6.728;2023-01-25T01:04:56;103335.50;;;4.04;100.00
19086;BME280;9675;51.538;6.728;2023-01-25T01:07:23;103342.03;;;4.02;100.00
19086;BME280;9675;51.538;6.728;2023-01-25T01:09:50;103337.47;;;3.99;100.00
19086;BME280;9675;51.538;6.728;2023-01-25T01:12:17;103340.22;;;4.01;100.00
19086;BME280;9675;51.538;6.728;2023-01-25T01:14:44;103329.28;;;4.02;100.00
19086;BME280;9675;51.538;6.728;2023-01-25T01:17:11;103326.75;;;4.02;100.00
19086;BME280;9675;51.538;6.728;2023-01-25T01:19:40;103333.28;;;4.00;100.00
19086;BME280;9675;51.538;6.728;2023-01-25T01:22:07;103323.09;;;4.00;100.00
19086;BME280;9675;51.538;6.728;2023-01-25T01:24:34;103326.41;;;3.99;100.00
19086;BME280;9675;51.538;6.728;2023-01-25T01:27:01;103324.41;;;3.96;100.00
19086;BME280;9675;51.538;6.728;2023-01-25T01:29:28;103324.41;;;3.96;100.00
19086;BME280;9675;51.538;6.728;2023-01-25T01:31:55;103314.78;;;3.94;100.00
19086;BME280;9675;51.538;6.728;2023-01-25T01:34:22;103326.41;;;3.92;100.00
19086;BME280;9675;51.538;6.728;2023-01-25T01:36:51;103321.72;;;3.88;100.00
19086;BME280;9675;51.538;6.728;2023-01-25T01:39:18;103319.16;;;3.88;100.00
19086;BME280;9675;51.538;6.728;2023-01-25T01:41:45;103322.63;;;3.88;100.00
19086;BME280;9675;51.538;6.728;2023-01-25T01:44:17;103306.41;;;3.88;100.00
19086;BME280;9675;51.538;6.728;2023-01-25T01:46:50;103317.72;;;3.82;100.00
19086;BME280;9675;51.538;6.728;2023-01-25T01:49:23;103317.72;;;3.82;100.00
19086;BME280;9675;51.538;6.728;2023-01-25T01:51:58;103316.44;;;3.79;100.00
19086;BME280;9675;51.538;6.728;2023-01-25T01:54:33;103319.16;;;3.80;100.00
19086;BME280;9675;51.538;6.728;2023-01-25T01:57:06;103312.25;;;3.79;100.00
19086;BME280;9675;51.538;6.728;2023-01-25T01:59:40;103307.88;;;3.78;100.00
19086;BME280;9675;51.538;6.728;2023-01-25T02:02:09;103308.63;;;3.77;100.00
19086;BME280;9675;51.538;6.728;2023-01-25T02:04:36;103305.19;;;3.77;100.00
19086;BME280;9675;51.538;6.728;2023-01-25T02:07:10;103312.44;;;3.74;100.00
19086;BME280;9675;51.538;6.728;2023-01-25T02:09:40;103310.47;;;3.71;100.00
19086;BME280;9675;51.538;6.728;2023-01-25T02:12:10;103307.00;;;3.71;100.00
19086;BME280;9675;51.538;6.728;2023-01-25T02:14:46;103309.38;;;3.69;100.00
19086;BME280;9675;51.538;6.728;2023-01-25T02:17:14;103309.75;;;3.65;100.00
19086;BME280;9675;51.538;6.728;2023-01-25T02:19:49;103315.03;;;3.67;100.00
19086;BME280;9675;51.538;6.728;2023-01-25T02:22:27;103312.63;;;3.68;100.00
19086;BME280;9675;51.538;6.728;2023-01-25T02:25:04;103314.47;;;3.69;100.00
19086;BME280;9675;51.538;6.728;2023-01-25T02:27:36;103306.09;;;3.63;100.00
19086;BME280;9675;51.538;6.728;2023-01-25T02:30:05;103308.84;;;3.65;100.00
19086;BME280;9675;51.538;6.728;2023-01-25T02:32:33;103305.00;;;3.68;100.00
19086;BME280;9675;51.538;6.728;2023-01-25T02:35:00;103299.38;;;3.64;100.00
19086;BME280;9675;51.538;6.728;2023-01-25T02:37:28;103314.47;;;3.69;100.00
19086;BME280;9675;51.538;6.728;2023-01-25T02:39:55;103309.75;;;3.65;100.00
19086;BME280;9675;51.538;6.728;2023-01-25T02:42:23;103308.13;;;3.66;100.00
19086;BME280;9675;51.538;6.728;2023-01-25T02:44:51;103305.56;;;3.66;100.00
19086;BME280;9675;51.538;6.728;2023-01-25T02:47:18;103302.09;;;3.65;100.00
19086;BME280;9675;51.538;6.728;2023-01-25T02:49:45;103301.91;;;3.64;100.00
19086;BME280;9675;51.538;6.728;2023-01-25T02:52:12;103299.38;;;3.64;100.00
19086;BME280;9675;51.538;6.728;2023-01-25T02:54:39;103296.66;;;3.62;100.00
19086;BME280;9675;51.538;6.728;2023-01-25T02:57:06;103299.75;;;3.60;100.00
19086;BME280;9675;51.538;6.728;2023-01-25T02:59:35;103298.84;;;3.59;100.00
19086;BME280;9675;51.538;6.728;2023-01-25T03:02:02;103304.66;;;3.58;100.00
19086;BME280;9675;51.538;6.728;2023-01-25T03:04:29;103305.22;;;3.56;100.00
19086;BME280;9675;51.538;6.728;2023-01-25T03:06:56;103297.41;;;3.54;100.00
19086;BME280;9675;51.538;6.728;2023-01-25T03:09:23;103297.41;;;3.54;100.00
19086;BME280;9675;51.538;6.728;2023-01-25T03:11:50;103301.03;;;3.56;100.00
19086;BME280;9675;51.538;6.728;2023-01-25T03:14:17;103293.41;;;3.56;100.00
19086;BME280;9675;51.538;6.728;2023-01-25T03:16:46;103289.03;;;3.55;100.00
19086;BME280;9675;51.538;6.728;2023-01-25T03:19:13;103287.59;;;3.57;100.00
19086;BME280;9675;51.538;6.728;2023-01-25T03:21:40;103280.66;;;3.56;100.00
19086;BME280;9675;51.538;6.728;2023-01-25T03:24:09;103276.28;;;3.55;100.00
19086;BME280;9675;51.538;6.728;2023-01-25T03:26:36;103277.59;;;3.52;100.00
19086;BME280;9675;51.538;6.728;2023-01-25T03:29:17;103268.31;;;3.52;100.00
19086;BME280;9675;51.538;6.728;2023-01-25T03:31:46;103272.50;;;3.52;100.00
19086;BME280;9675;51.538;6.728;2023-01-25T03:34:13;103269.75;;;3.50;100.00
19086;BME280;9675;51.538;6.728;2023-01-25T03:36:40;103259.03;;;3.46;100.00
19086;BME280;9675;51.538;6.728;2023-01-25T03:39:07;103267.22;;;3.50;100.00
19086;BME280;9675;51.538;6.728;2023-01-25T03:41:34;103251.94;;;3.50;100.00
19086;BME280;9675;51.538;6.728;2023-01-25T03:44:01;103253.56;;;3.50;100.00
19086;BME280;9675;51.538;6.728;2023-01-25T03:46:28;103246.50;;;3.47;100.00
19086;BME280;9675;51.538;6.728;2023-01-25T03:48:56;103245.41;;;3.45;100.00
19086;BME280;9675;51.538;6.728;2023-01-25T03:51:23;103247.03;;;3.45;100.00
19086;BME280;9675;51.538;6.728;2023-01-25T03:53:50;103255.22;;;3.42;100.00
19086;BME280;9675;51.538;6.728;2023-01-25T03:56:17;103257.03;;;3.43;100.00
19086;BME280;9675;51.538;6.728;2023-01-25T03:58:45;103253.75;;;3.44;100.00
19086;BME280;9675;51.538;6.728;2023-01-25T04:01:13;103250.13;;;3.42;100.00
19086;BME280;9675;51.538;6.728;2023-01-25T04:03:40;103244.28;;;3.43;100.00
19086;BME280;9675;51.538;6.728;2023-01-25T04:06:08;103241.75;;;3.43;100.00
19086;BME280;9675;51.538;6.728;2023-01-25T04:08:36;103240.69;;;3.41;100.00
19086;BME280;9675;51.538;6.728;2023-01-25T04:11:06;103229.75;;;3.42;100.00
19086;BME280;9675;51.538;6.728;2023-01-25T04:13:34;103229.75;;;3.42;100.00
19086;BME280;9675;51.538;6.728;2023-01-25T04:16:03;103233.03;;;3.41;100.00
19086;BME280;9675;51.538;6.728;2023-01-25T04:18:30;103225.75;;;3.37;100.00
19086;BME280;9675;51.538;6.728;2023-01-25T04:20:57;103224.31;;;3.39;100.00
19086;BME280;9675;51.538;6.728;2023-01-25T04:23:26;103223.59;;;3.40;100.00
19086;BME280;9675;51.538;6.728;2023-01-25T04:25:53;103215.94;;;3.40;100.00
19086;BME280;9675;51.538;6.728;2023-01-25T04:28:21;103218.31;;;3.38;100.00
19086;BME280;9675;51.538;6.728;2023-01-25T04:30:48;103215.22;;;3.34;100.00
19086;BME280;9675;51.538;6.728;2023-01-25T04:33:16;103210.72;;;3.31;100.00
19086;BME280;9675;51.538;6.728;2023-01-25T04:35:43;103207.97;;;3.30;100.00
19086;BME280;9675;51.538;6.728;2023-01-25T04:38:11;103207.97;;;3.30;100.00
19086;BME280;9675;51.538;6.728;2023-01-25T04:40:41;103204.91;;;3.25;100.00
19086;BME280;9675;51.538;6.728;2023-01-25T04:43:10;103207.97;;;3.23;100.00
19086;BME280;9675;51.538;6.728;2023-01-25T04:45:38;103208.69;;;3.22;100.00
19086;BME280;9675;51.538;6.728;2023-01-25T04:48:08;103198.53;;;3.22;100.00
19086;BME280;9675;51.538;6.728;2023-01-25T04:50:36;103198.91;;;3.18;100.00
19086;BME280;9675;51.538;6.728;2023-01-25T04:53:03;103194.53;;;3.17;100.00
19086;BME280;9675;51.538;6.728;2023-01-25T04:55:31;103192.91;;;3.17;100.00
19086;BME280;9675;51.538;6.728;2023-01-25T04:58:00;103192.75;;;3.16;100.00
19086;BME280;9675;51.538;6.728;2023-01-25T05:00:28;103196.00;;;3.15;100.00
19086;BME280;9675;51.538;6.728;2023-01-25T05:02:55;103204.38;;;3.14;100.00
19086;BME280;9675;51.538;6.728;2023-01-25T05:05:22;103200.72;;;3.12;100.00
19086;BME280;9675;51.538;6.728;2023-01-25T05:07:49;103205.81;;;3.12;100.00
19086;BME280;9675;51.538;6.728;2023-01-25T05:10:16;103202.34;;;3.11;100.00
19086;BME280;9675;51.538;6.728;2023-01-25T05:12:43;103199.47;;;3.08;100.00
19086;BME280;9675;51.538;6.728;2023-01-25T05:15:11;103201.09;;;3.08;100.00
19086;BME280;9675;51.538;6.728;2023-01-25T05:17:38;103204.56;;;3.08;100.00
19086;BME280;9675;51.538;6.728;2023-01-25T05:20:07;103200.03;;;3.06;100.00
19086;BME280;9675;51.538;6.728;2023-01-25T05:22:34;103199.13;;;3.05;100.00
19086;BME280;9675;51.538;6.728;2023-01-25T05:25:01;103194.56;;;3.03;100.00
19086;BME280;9675;51.538;6.728;2023-01-25T05:27:28;103194.56;;;3.03;100.00
19086;BME280;9675;51.538;6.728;2023-01-25T05:29:55;103186.75;;;3.01;100.00
19086;BME280;9675;51.538;6.728;2023-01-25T05:32:24;103193.13;;;3.05;100.00
19086;BME280;9675;51.538;6.728;2023-01-25T05:34:51;103193.13;;;3.05;100.00
19086;BME280;9675;51.538;6.728;2023-01-25T05:37:20;103190.56;;;3.05;100.00
19086;BME280;9675;51.538;6.728;2023-01-25T05:39:47;103194.75;;;3.04;100.00
19086;BME280;9675;51.538;6.728;2023-01-25T05:42:16;103199.66;;;3.03;100.00
19086;BME280;9675;51.538;6.728;2023-01-25T05:44:44;103196.38;;;3.04;100.00
19086;BME280;9675;51.538;6.728;2023-01-25T05:47:13;103190.03;;;3.00;100.00
19086;BME280;9675;51.538;6.728;2023-01-25T05:49:41;103198.22;;;3.05;100.00
19086;BME280;9675;51.538;6.728;2023-01-25T05:52:12;103203.31;;;3.05;100.00
19086;BME280;9675;51.538;6.728;2023-01-25T05:54:39;103197.69;;;3.00;100.00
19086;BME280;9675;51.538;6.728;2023-01-25T05:57:06;103186.94;;;2.95;100.00
19086;BME280;9675;51.538;6.728;2023-01-25T05:59:34;103190.94;;;3.00;100.00
19086;BME280;9675;51.538;6.728;2023-01-25T06:02:03;103185.84;;;3.00;100.00
19086;BME280;9675;51.538;6.728;2023-01-25T06:04:30;103187.13;;;3.04;100.00
19086;BME280;9675;51.538;6.728;2023-01-25T06:06:59;103186.22;;;3.04;100.00
19086;BME280;9675;51.538;6.728;2023-01-25T06:09:26;103174.78;;;3.00;100.00
19086;BME280;9675;51.538;6.728;2023-01-25T06:11:53;103181.50;;;2.99;100.00
19086;BME280;9675;51.538;6.728;2023-01-25T06:14:20;103184.56;;;2.97;100.00
19086;BME280;9675;51.538;6.728;2023-01-25T06:16:48;103179.50;;;2.97;100.00
19086;BME280;9675;51.538;6.728;2023-01-25T06:19:15;103180.41;;;2.97;100.00
19086;BME280;9675;51.538;6.728;2023-01-25T06:21:42;103185.50;;;2.97;100.00
19086;BME280;9675;51.538;6.728;2023-01-25T06:24:11;103181.84;;;2.95;100.00
19086;BME280;9675;51.538;6.728;2023-01-25T06:26:38;103186.06;;;2.95;100.00
19086;BME280;9675;51.538;6.728;2023-01-25T06:29:05;103185.50;;;2.97;100.00
19086;BME280;9675;51.538;6.728;2023-01-25T06:31:32;103179.69;;;2.98;100.00
19086;BME280;9675;51.538;6.728;2023-01-25T06:33:59;103181.31;;;2.98;100.00
19086;BME280;9675;51.538;6.728;2023-01-25T06:36:29;103175.88;;;2.95;100.00
19086;BME280;9675;51.538;6.728;2023-01-25T06:38:57;103177.31;;;2.93;100.00
19086;BME280;9675;51.538;6.728;2023-01-25T06:41:25;103175.69;;;2.93;100.00
19086;BME280;9675;51.538;6.728;2023-01-25T06:43:52;103180.59;;;2.92;100.00
19086;BME280;9675;51.538;6.728;2023-01-25T06:46:20;103180.06;;;2.87;100.00
19086;BME280;9675;51.538;6.728;2023-01-25T06:48:47;103185.88;;;2.86;100.00
19086;BME280;9675;51.538;6.728;2023-01-25T06:51:15;103182.25;;;2.84;100.00
19086;BME280;9675;51.538;6.728;2023-01-25T06:53:45;103184.94;;;2.86;100.00
19086;BME280;9675;51.538;6.728;2023-01-25T06:56:14;103180.78;;;2.86;100.00
19086;BME280;9675;51.538;6.728;2023-01-25T06:58:44;103185.88;;;2.86;100.00
19086;BME280;9675;51.538;6.728;2023-01-25T07:01:14;103178.22;;;2.86;100.00
19086;BME280;9675;51.538;6.728;2023-01-25T07:03:42;103188.41;;;2.86;100.00
19086;BME280;9675;51.538;6.728;2023-01-25T07:06:10;103184.94;;;2.86;100.00
19086;BME280;9675;51.538;6.728;2023-01-25T07:08:37;103182.25;;;2.84;100.00
19086;BME280;9675;51.538;6.728;2023-01-25T07:11:08;103183.69;;;2.82;100.00
19086;BME280;9675;51.538;6.728;2023-01-25T07:13:39;103180.06;;;2.80;100.00
19086;BME280;9675;51.538;6.728;2023-01-25T07:16:14;103178.41;;;2.81;100.00
19086;BME280;9675;51.538;6.728;2023-01-25T07:18:42;103183.50;;;2.81;100.00
19086;BME280;9675;51.538;6.728;2023-01-25T07:21:12;103180.06;;;2.80;100.00
19086;BME280;9675;51.538;6.728;2023-01-25T07:23:40;103175.72;;;2.79;100.00
19086;BME280;9675;51.538;6.728;2023-01-25T07:26:15;103176.44;;;2.78;100.00
19086;BME280;9675;51.538;6.728;2023-01-25T07:28:43;103168.63;;;2.77;100.00
19086;BME280;9675;51.538;6.728;2023-01-25T07:31:13;103170.63;;;2.79;100.00
19086;BME280;9675;51.538;6.728;2023-01-25T07:33:40;103167.19;;;2.79;100.00
19086;BME280;9675;51.538;6.728;2023-01-25T07:36:09;103173.72;;;2.77;100.00
19086;BME280;9675;51.538;6.728;2023-01-25T07:38:37;103176.97;;;2.76;100.00
19086;BME280;9675;51.538;6.728;2023-01-25T07:41:05;103174.28;;;2.74;100.00
19086;BME280;9675;51.538;6.728;2023-01-25T07:43:33;103165.53;;;2.72;100.00
19086;BME280;9675;51.538;6.728;2023-01-25T07:46:01;103164.63;;;2.72;100.00
19086;BME280;9675;51.538;6.728;2023-01-25T07:48:30;103162.81;;;2.71;100.00
19086;BME280;9675;51.538;6.728;2023-01-25T07:50:58;103160.63;;;2.74;100.00
19086;BME280;9675;51.538;6.728;2023-01-25T07:53:48;103158.63;;;2.71;100.00
19086;BME280;9675;51.538;6.728;2023-01-25T07:56:17;103166.44;;;2.73;100.00
19086;BME280;9675;51.538;6.728;2023-01-25T07:58:45;103165.16;;;2.76;100.00
19086;BME280;9675;51.538;6.728;2023-01-25T08:01:14;103160.44;;;2.72;100.00
19086;BME280;9675;51.538;6.728;2023-01-25T08:03:44;103154.44;;;2.72;100.00
19086;BME280;9675;51.538;6.728;2023-01-25T08:06:12;103154.44;;;2.72;100.00
19086;BME280;9675;51.538;6.728;2023-01-25T08:08:42;103152.81;;;2.72;100.00
19086;BME280;9675;51.538;6.728;2023-01-25T08:11:12;103157.19;;;2.73;100.00
19086;BME280;9675;51.538;6.728;2023-01-25T08:13:40;103148.44;;;2.71;100.00
19086;BME280;9675;51.538;6.728;2023-01-25T08:16:11;103149.03;;;2.69;100.00
19086;BME280;9675;51.538;6.728;2023-01-25T08:18:38;103153.00;;;2.67;100.00
19086;BME280;9675;51.538;6.728;2023-01-25T08:21:07;103153.72;;;2.66;100.00
19086;BME280;9675;51.538;6.728;2023-01-25T08:23:34;103161.91;;;2.63;100.00
19086;BME280;9675;51.538;6.728;2023-01-25T08:26:06;103158.66;;;2.64;100.00
19086;BME280;9675;51.538;6.728;2023-01-25T08:28:34;103152.81;;;2.65;100.00
19086;BME280;9675;51.538;6.728;2023-01-25T08:31:06;103155.34;;;2.65;100.00
19086;BME280;9675;51.538;6.728;2023-01-25T08:33:34;103152.81;;;2.65;100.00
19086;BME280;9675;51.538;6.728;2023-01-25T08:36:02;103150.13;;;2.64;100.00
19086;BME280;9675;51.538;6.728;2023-01-25T08:38:31;103151.75;;;2.63;100.00
19086;BME280;9675;51.538;6.728;2023-01-25T08:41:04;103149.19;;;2.63;100.00
19086;BME280;9675;51.538;6.728;2023-01-25T08:43:32;103144.13;;;2.63;100.00
19086;BME280;9675;51.538;6.728;2023-01-25T08:45:59;103140.47;;;2.61;100.00
19086;BME280;9675;51.538;6.728;2023-01-25T08:48:26;103145.56;;;2.61;100.00
19086;BME280;9675;51.538;6.728;2023-01-25T08:50:53;103145.56;;;2.61;100.00
19086;BME280;9675;51.538;6.728;2023-01-25T08:53:20;103142.09;;;2.61;100.00
19086;BME280;9675;51.538;6.728;2023-01-25T08:55:49;103141.19;;;2.60;100.00
19086;BME280;9675;51.538;6.728;2023-01-25T08:58:16;103136.31;;;2.62;100.00
19086;BME280;9675;51.538;6.728;2023-01-25T09:00:44;103132.13;;;2.62;100.00
19086;BME280;9675;51.538;6.728;2023-01-25T09:03:12;103127.03;;;2.62;100.00
19086;BME280;9675;51.538;6.728;2023-01-25T09:05:40;103132.13;;;2.62;100.00
19086;BME280;9675;51.538;6.728;2023-01-25T09:08:09;103132.13;;;2.62;100.00
19086;BME280;9675;51.538;6.728;2023-01-25T09:10:36;103131.94;;;2.61;100.00
19086;BME280;9675;51.538;6.728;2023-01-25T09:13:05;103124.88;;;2.58;100.00
19086;BME280;9675;51.538;6.728;2023-01-25T09:15:32;103125.78;;;2.59;100.00
19086;BME280;9675;51.538;6.728;2023-01-25T09:17:59;103138.66;;;2.60;100.00
19086;BME280;9675;51.538;6.728;2023-01-25T09:20:26;103122.66;;;2.61;100.00
19086;BME280;9675;51.538;6.728;2023-01-25T09:22:54;103121.94;;;2.62;100.00
19086;BME280;9675;51.538;6.728;2023-01-25T09:25:22;103109.97;;;2.61;100.00
19086;BME280;9675;51.538;6.728;2023-01-25T09:27:49;103111.78;;;2.62;100.00
19086;BME280;9675;51.538;6.728;2023-01-25T09:30:18;103111.78;;;2.62;100.00
19086;BME280;9675;51.538;6.728;2023-01-25T09:32:47;103114.31;;;2.62;100.00
19086;BME280;9675;51.538;6.728;2023-01-25T09:35:15;103099.06;;;2.62;100.00
19086;BME280;9675;51.538;6.728;2023-01-25T09:37:42;103104.88;;;2.61;100.00
19086;BME280;9675;51.538;6.728;2023-01-25T09:40:20;103102.91;;;2.59;100.00
19086;BME280;9675;51.538;6.728;2023-01-25T09:43:01;103114.31;;;2.62;100.00
19086;BME280;9675;51.538;6.728;2023-01-25T09:45:33;103111.44;;;2.59;100.00
19086;BME280;9675;51.538;6.728;2023-01-25T09:48:17;103111.44;;;2.59;100.00
19086;BME280;9675;51.538;6.728;2023-01-25T09:51:12;103109.59;;;2.58;100.00
19086;BME280;9675;51.538;6.728;2023-01-25T09:53:48;103099.44;;;2.58;100.00
19086;BME280;9675;51.538;6.728;2023-01-25T09:56:22;103104.53;;;2.58;100.00
19086;BME280;9675;51.538;6.728;2023-01-25T09:58:56;103094.34;;;2.58;100.00
19086;BME280;9675;51.538;6.728;2023-01-25T10:01:34;103099.44;;;2.58;100.00
19086;BME280;9675;51.538;6.728;2023-01-25T10:04:13;103101.25;;;2.59;100.00
19086;BME280;9675;51.538;6.728;2023-01-25T10:06:45;103101.25;;;2.59;100.00
19086;BME280;9675;51.538;6.728;2023-01-25T10:09:25;103102.72;;;2.57;100.00
19086;BME280;9675;51.538;6.728;2023-01-25T10:11:53;103098.53;;;2.58;100.00
19086;BME280;9675;51.538;6.728;2023-01-25T10:14:20;103106.88;;;2.56;100.00
19086;BME280;9675;51.538;6.728;2023-01-25T10:17:04;103099.25;;;2.56;100.00
19086;BME280;9675;51.538;6.728;2023-01-25T10:22:45;103094.34;;;2.58;100.00
19086;BME280;9675;51.538;6.728;2023-01-25T10:25:34;103090.00;;;2.57;100.00
19086;BME280;9675;51.538;6.728;2023-01-25T10:28:25;103095.81;;;2.56;100.00
19086;BME280;9675;51.538;6.728;2023-01-25T10:30:59;103093.06;;;2.54;100.00
19086;BME280;9675;51.538;6.728;2023-01-25T10:33:32;103088.88;;;2.55;100.00
19086;BME280;9675;51.538;6.728;2023-01-25T10:36:04;103083.81;;;2.55;100.00
19086;BME280;9675;51.538;6.728;2023-01-25T10:38:36;103068.53;;;2.55;100.00
19086;BME280;9675;51.538;6.728;2023-01-25T10:41:13;103066.72;;;2.54;100.00
19086;BME280;9675;51.538;6.728;2023-01-25T10:43:42;103062.41;;;2.53;100.00
19086;BME280;9675;51.538;6.728;2023-01-25T10:46:27;103051.47;;;2.54;100.00
19086;BME280;9675;51.538;6.728;2023-01-25T10:48:56;103053.28;;;2.55;100.00
19086;BME280;9675;51.538;6.728;2023-01-25T10:51:31;103049.69;;;2.53;100.00
19086;BME280;9675;51.538;6.728;2023-01-25T10:54:02;103050.75;;;2.55;100.00
19086;BME280;9675;51.538;6.728;2023-01-25T10:56:33;103043.13;;;2.55;100.00
19086;BME280;9675;51.538;6.728;2023-01-25T10:59:16;103041.50;;;2.55;100.00
19086;BME280;9675;51.538;6.728;2023-01-25T11:01:44;103037.13;;;2.54;100.00
19086;BME280;9675;51.538;6.728;2023-01-25T11:04:30;103031.13;;;2.54;100.00
19086;BME280;9675;51.538;6.728;2023-01-25T11:06:58;103026.03;;;2.54;100.00
19086;BME280;9675;51.538;6.728;2023-01-25T11:09:36;103018.78;;;2.50;100.00
19086;BME280;9675;51.538;6.728;2023-01-25T11:12:15;103015.53;;;2.51;100.00
19086;BME280;9675;51.538;6.728;2023-01-25T11:14:44;103007.19;;;2.52;100.00
19086;BME280;9675;51.538;6.728;2023-01-25T11:17:24;103009.72;;;2.52;100.00
19086;BME280;9675;51.538;6.728;2023-01-25T11:20:18;103003.38;;;2.48;100.00
19086;BME280;9675;51.538;6.728;2023-01-25T11:22:51;102993.00;;;2.54;100.00
19086;BME280;9675;51.538;6.728;2023-01-25T11:25:28;102992.25;;;2.55;100.00
19086;BME280;9675;51.538;6.728;2023-01-25T11:28:20;102980.66;;;2.57;100.00
19086;BME280;9675;51.538;6.728;2023-01-25T11:30:49;102972.09;;;2.56;100.00
19086;BME280;9675;51.538;6.728;2023-01-25T11:33:21;102965.03;;;2.54;100.00
19086;BME280;9675;51.538;6.728;2023-01-25T11:36:15;102962.31;;;2.52;100.00
19086;BME280;9675;51.538;6.728;2023-01-25T11:39:02;102966.84;;;2.55;100.00
19086;BME280;9675;51.538;6.728;2023-01-25T11:41:53;102965.22;;;2.55;100.00
19086;BME280;9675;51.538;6.728;2023-01-25T11:48:06;102951.59;;;2.55;100.00
19086;BME280;9675;51.538;6.728;2023-01-25T11:50:43;102951.59;;;2.55;100.00
19086;BME280;9675;51.538;6.728;2023-01-25T11:53:37;102938.88;;;2.55;100.00
19086;BME280;9675;51.538;6.728;2023-01-25T11:56:20;102935.41;;;2.54;100.00
19086;BME280;9675;51.538;6.728;2023-01-25T11:59:26;102922.69;;;2.54;100.00
19086;BME280;9675;51.538;6.728;2023-01-25T12:02:21;102910.19;;;2.56;100.00
19086;BME280;9675;51.538;6.728;2023-01-25T12:05:19;102902.94;;;2.52;100.00
19086;BME280;9675;51.538;6.728;2023-01-25T12:08:10;102892.94;;;2.53;100.00
19086;BME280;9675;51.538;6.728;2023-01-25T12:10:53;102880.25;;;2.53;100.00
19086;BME280;9675;51.538;6.728;2023-01-25T12:13:38;102876.78;;;2.53;100.00
19086;BME280;9675;51.538;6.728;2023-01-25T12:16:33;102861.69;;;2.54;100.00
19086;BME280;9675;51.538;6.728;2023-01-25T12:19:26;102862.44;;;2.53;100.00
19086;BME280;9675;51.538;6.728;2023-01-25T12:22:12;102855.88;;;2.55;100.00
19086;BME280;9675;51.538;6.728;2023-01-25T12:24:55;102848.44;;;2.57;100.00
19086;BME280;9675;51.538;6.728;2023-01-25T12:27:46;102846.59;;;2.56;100.00
19086;BME280;9675;51.538;6.728;2023-01-25T12:30:35;102839.72;;;2.55;100.00
19086;BME280;9675;51.538;6.728;2023-01-25T12:33:12;102831.34;;;2.56;100.00
19086;BME280;9675;51.538;6.728;2023-01-25T12:35:47;102820.47;;;2.57;100.00
19086;BME280;9675;51.538;6.728;2023-01-25T12:38:25;102818.81;;;2.58;100.00
19086;BME280;9675;51.538;6.728;2023-01-25T12:41:03;102809.38;;;2.56;100.00
19086;BME280;9675;51.538;6.728;2023-01-25T12:43:45;102805.03;;;2.55;100.00
19086;BME280;9675;51.538;6.728;2023-01-25T12:46:22;102811.38;;;2.59;100.00
19086;BME280;9675;51.538;6.728;2023-01-25T12:48:58;102794.66;;;2.54;100.00
19086;BME280;9675;51.538;6.728;2023-01-25T12:51:35;102799.38;;;2.58;100.00
19086;BME280;9675;51.538;6.728;2023-01-25T12:54:15;102790.13;;;2.59;100.00
19086;BME280;9675;51.538;6.728;2023-01-25T12:56:53;102773.97;;;2.58;100.00
19086;BME280;9675;51.538;6.728;2023-01-25T12:59:33;102774.88;;;2.59;100.00
19086;BME280;9675;51.538;6.728;2023-01-25T13:02:21;102766.69;;;2.54;100.00
19086;BME280;9675;51.538;6.728;2023-01-25T13:05:02;102763.09;;;2.52;100.00
19086;BME280;9675;51.538;6.728;2023-01-25T13:07:48;102757.09;;;2.51;100.00
19086;BME280;9675;51.538;6.728;2023-01-25T13:10:25;102756.19;;;2.51;100.00
19086;BME280;9675;51.538;6.728;2023-01-25T13:12:58;102750.38;;;2.52;100.00
19086;BME280;9675;51.538;6.728;2023-01-25T13:15:38;102741.28;;;2.54;100.00
19086;BME280;9675;51.538;6.728;2023-01-25T13:18:35;102736.19;;;2.54;100.00
19086;BME280;9675;51.538;6.728;2023-01-25T13:21:09;102727.84;;;2.55;100.00
19086;BME280;9675;51.538;6.728;2023-01-25T13:23:38;102729.47;;;2.54;100.00
19086;BME280;9675;51.538;6.728;2023-01-25T13:26:48;102731.69;;;2.51;100.00
19086;BME280;9675;51.538;6.728;2023-01-25T13:29:44;102727.50;;;2.52;100.00